Time;durP1;ratioP1;P1;durP2;ratioP2;P2;SDS_P1;SDS_P2;PMS_P1;PMS_P2;Temp;Humidity;BMP_temperature;BMP_pressure;BME280_temperature;BME280_humidity;BME280_pressure;Samples;Min_cycle;Max_cycle;Signal;HPM_P1;HPM_P2
2022/11/02 00:00:38;;;;;;;9.75;2.33;;;13.20;99.90;;;;;;4883649;29;20043;-93
2022/11/02 00:03:04;;;;;;;8.93;2.60;;;13.10;99.90;;;;;;4901439;29;20036;-94
2022/11/02 00:05:30;;;;;;;8.20;2.20;;;13.10;99.90;;;;;;4882929;29;20056;-93
2022/11/02 00:07:55;;;;;;;8.43;1.80;;;13.10;99.90;;;;;;4896676;29;20059;-91
2022/11/02 00:10:25;;;;;;;7.63;1.58;;;13.10;99.90;;;;;;4888415;29;20048;-93
2022/11/02 00:12:52;;;;;;;10.02;1.92;;;13.00;99.90;;;;;;4885028;29;20071;-94
2022/11/02 00:15:18;;;;;;;10.93;2.08;;;13.00;99.90;;;;;;4884468;29;20040;-93
2022/11/02 00:17:49;;;;;;;9.65;1.95;;;13.00;99.90;;;;;;4879131;29;20056;-94
2022/11/02 00:20:17;;;;;;;9.93;2.38;;;13.00;99.90;;;;;;4885054;29;20054;-93
2022/11/02 00:22:45;;;;;;;9.00;2.13;;;13.00;99.90;;;;;;4882837;29;20504;-94
2022/11/02 00:25:16;;;;;;;9.77;2.10;;;12.90;99.90;;;;;;4882730;29;20052;-92
2022/11/02 00:27:42;;;;;;;9.05;2.45;;;12.90;99.90;;;;;;4886975;29;20453;-95
2022/11/02 00:30:09;;;;;;;9.65;2.08;;;12.90;99.90;;;;;;4874721;29;20095;-95
2022/11/02 00:32:34;;;;;;;10.30;2.05;;;12.90;99.90;;;;;;4887928;29;20087;-95
2022/11/02 00:35:00;;;;;;;7.10;1.80;;;13.00;99.90;;;;;;4884338;29;20430;-94
2022/11/02 00:37:26;;;;;;;8.05;2.20;;;12.90;99.90;;;;;;4902117;29;20127;-93
2022/11/02 00:39:51;;;;;;;8.10;2.13;;;12.90;99.90;;;;;;4885487;29;20059;-94
2022/11/02 00:42:17;;;;;;;9.30;2.25;;;12.80;99.90;;;;;;4901906;29;20112;-93
2022/11/02 00:44:43;;;;;;;12.23;2.58;;;12.80;99.90;;;;;;4885295;29;20122;-92
2022/11/02 00:47:10;;;;;;;9.10;2.20;;;12.80;99.90;;;;;;4884694;29;20071;-94
2022/11/02 00:49:36;;;;;;;10.30;2.33;;;12.80;99.90;;;;;;4879170;29;20135;-95
2022/11/02 00:52:01;;;;;;;12.15;2.55;;;12.70;99.90;;;;;;4886052;29;20067;-95
2022/11/02 00:54:27;;;;;;;11.93;2.92;;;12.70;99.90;;;;;;4901881;29;20104;-96
2022/11/02 00:56:53;;;;;;;9.82;2.30;;;12.60;99.90;;;;;;4902202;29;20047;-95
2022/11/02 00:59:19;;;;;;;10.88;2.80;;;12.70;99.90;;;;;;4884162;29;20044;-94
2022/11/02 01:01:46;;;;;;;10.55;2.65;;;12.50;99.90;;;;;;4900686;29;20532;-96
2022/11/02 01:04:16;;;;;;;12.18;3.22;;;12.40;99.90;;;;;;4885355;29;20131;-95
2022/11/02 01:06:42;;;;;;;12.07;3.25;;;12.40;99.90;;;;;;4885261;29;20040;-95
2022/11/02 01:09:09;;;;;;;10.25;2.47;;;12.40;99.90;;;;;;4899082;29;20036;-96
2022/11/02 01:11:35;;;;;;;11.40;2.72;;;12.40;99.90;;;;;;4886853;29;20394;-96
2022/11/02 01:14:01;;;;;;;13.15;3.00;;;12.40;99.90;;;;;;4900753;29;20123;-95
2022/11/02 01:16:27;;;;;;;11.52;3.05;;;12.30;99.90;;;;;;4901809;29;20063;-93
2022/11/02 01:18:55;;;;;;;10.98;2.97;;;12.30;99.90;;;;;;4880962;29;20050;-96
2022/11/02 01:21:21;;;;;;;12.30;2.60;;;12.20;99.90;;;;;;4903413;29;20454;-96
2022/11/02 01:23:47;;;;;;;12.00;3.10;;;12.40;99.90;;;;;;4885986;29;20048;-95
2022/11/02 01:26:17;;;;;;;14.05;2.92;;;12.20;99.90;;;;;;4900044;29;20055;-95
2022/11/02 01:28:43;;;;;;;13.73;3.20;;;12.30;99.90;;;;;;4882760;29;20383;-96
2022/11/02 01:31:10;;;;;;;11.63;2.90;;;12.20;99.90;;;;;;4885350;29;20048;-95
2022/11/02 01:33:36;;;;;;;12.13;3.22;;;12.20;99.90;;;;;;4881431;29;20036;-92
2022/11/02 01:36:06;;;;;;;13.63;3.47;;;12.20;99.90;;;;;;4899562;29;20036;-93
2022/11/02 01:38:32;;;;;;;12.35;3.03;;;12.30;99.90;;;;;;4884032;29;20036;-95
2022/11/02 01:40:58;;;;;;;12.55;3.28;;;12.20;99.90;;;;;;4884334;29;20040;-93
2022/11/02 01:43:30;;;;;;;10.98;3.13;;;12.30;99.90;;;;;;4914844;29;20176;-93
2022/11/02 01:46:05;;;;;;;13.98;3.80;;;12.30;99.90;;;;;;4884548;29;20033;-94
2022/11/02 01:48:35;;;;;;;15.23;3.53;;;12.30;99.90;;;;;;4878289;29;20092;-93
2022/11/02 01:51:05;;;;;;;13.65;3.00;;;12.30;99.90;;;;;;4887162;29;20036;-95
2022/11/02 01:53:33;;;;;;;9.93;2.90;;;12.30;99.90;;;;;;4895501;29;20044;-93
2022/11/02 01:56:00;;;;;;;14.77;3.40;;;12.40;99.90;;;;;;4881254;29;20044;-96
2022/11/02 01:58:26;;;;;;;11.00;3.15;;;12.40;99.90;;;;;;4896965;29;20041;-95
2022/11/02 02:00:53;;;;;;;12.35;3.40;;;12.30;99.90;;;;;;4882520;29;20056;-94
2022/11/02 02:03:20;;;;;;;10.93;3.42;;;12.30;99.90;;;;;;4878071;29;20056;-94
2022/11/02 02:05:55;;;;;;;17.20;3.47;;;12.30;99.90;;;;;;4887272;29;20059;-95
2022/11/02 02:08:26;;;;;;;12.32;3.10;;;12.30;99.90;;;;;;4902331;29;20413;-96
2022/11/02 02:10:56;;;;;;;10.60;3.17;;;12.40;99.90;;;;;;4888362;29;20042;-95
2022/11/02 02:13:24;;;;;;;13.27;3.75;;;12.40;99.90;;;;;;4907958;29;20365;-96
2022/11/02 02:16:08;;;;;;;11.30;3.57;;;12.40;99.90;;;;;;4897117;29;20104;-96
2022/11/02 02:18:56;;;;;;;12.50;3.53;;;12.50;99.90;;;;;;4895298;29;20066;-96
2022/11/02 16:05:28;;;;;;;9.50;2.38;;;12.60;99.90;;;;;;1605414;23;20357;-93
2022/11/02 16:10:33;;;;;;;11.55;2.40;;;12.40;99.90;;;;;;5209772;23;20057;-96
2022/11/02 16:13:19;;;;;;;9.52;2.20;;;12.40;99.90;;;;;;4889249;29;20037;-96
2022/11/02 16:15:50;;;;;;;10.43;2.13;;;12.30;99.90;;;;;;4883702;29;20036;-96
2022/11/02 16:18:26;;;;;;;9.93;1.73;;;12.20;99.90;;;;;;4886775;29;20052;-96
2022/11/02 16:20:55;;;;;;;12.55;2.47;;;12.20;99.90;;;;;;4885571;29;20045;-96
2022/11/02 16:23:27;;;;;;;10.95;2.38;;;12.20;99.90;;;;;;4901856;29;20052;-94
2022/11/02 16:25:55;;;;;;;11.23;2.25;;;12.10;99.90;;;;;;4883469;29;20048;-96
2022/11/02 16:28:29;;;;;;;10.32;2.15;;;12.00;99.90;;;;;;4875353;29;20123;-96
2022/11/02 16:31:04;;;;;;;12.38;2.53;;;12.00;99.90;;;;;;4890247;29;20037;-96
2022/11/02 16:33:51;;;;;;;10.35;2.42;;;12.00;99.90;;;;;;4892089;29;20402;-95
2022/11/02 16:36:22;;;;;;;8.25;2.60;;;12.00;99.90;;;;;;4888902;29;20036;-95
2022/11/02 16:39:09;;;;;;;9.57;2.10;;;11.90;99.90;;;;;;4872876;29;20062;-95
2022/11/02 16:41:37;;;;;;;12.63;2.40;;;11.90;99.90;;;;;;4899859;29;20044;-96
2022/11/02 16:44:10;;;;;;;10.57;2.55;;;11.90;99.90;;;;;;4898249;29;20044;-95
2022/11/02 18:26:23;;;;;;;13.00;3.03;;;11.40;99.90;;;;;;513049;23;20305;-96
2022/11/02 18:28:50;;;;;;;13.20;3.25;;;11.40;99.90;;;;;;4872668;29;20442;-96
2022/11/02 18:31:16;;;;;;;14.57;3.67;;;11.40;99.90;;;;;;4901795;29;20099;-95
2022/11/02 18:33:42;;;;;;;11.40;3.03;;;11.40;99.90;;;;;;4873045;29;20052;-96
2022/11/02 18:36:09;;;;;;;12.43;3.42;;;11.40;99.90;;;;;;4871237;29;20404;-95
2022/11/02 18:38:36;;;;;;;12.05;3.25;;;11.40;99.90;;;;;;4872515;29;20055;-95
2022/11/02 18:41:26;;;;;;;14.82;3.10;;;11.40;99.90;;;;;;4885726;29;20665;-96
2022/11/02 18:43:56;;;;;;;11.60;3.40;;;11.40;99.90;;;;;;4878797;29;20052;-96
2022/11/02 18:46:22;;;;;;;12.82;3.80;;;11.40;99.90;;;;;;4896153;29;20048;-96
2022/11/02 18:48:51;;;;;;;10.75;3.28;;;11.40;99.90;;;;;;4869083;29;20132;-95
2022/11/02 18:51:16;;;;;;;15.32;3.58;;;11.40;99.90;;;;;;4873219;29;20104;-96
2022/11/02 18:53:43;;;;;;;11.45;3.22;;;11.30;99.90;;;;;;4870463;29;20088;-96
2022/11/02 18:56:09;;;;;;;13.45;3.45;;;11.40;99.90;;;;;;4870099;29;20068;-96
2022/11/02 18:58:37;;;;;;;11.70;3.35;;;11.40;99.90;;;;;;4868975;29;20080;-96
2022/11/02 19:01:11;;;;;;;14.27;3.47;;;11.40;99.90;;;;;;4868268;29;20041;-96
2022/11/02 19:03:40;;;;;;;12.68;3.50;;;11.40;99.90;;;;;;4892989;29;20041;-95
2022/11/02 20:16:03;;;;;;;13.00;3.15;;;11.50;99.90;;;;;;1812900;23;20449;-96
2022/11/02 20:18:29;;;;;;;13.27;3.35;;;11.40;99.90;;;;;;4962227;23;20513;-94
2022/11/02 20:21:14;;;;;;;11.82;2.95;;;11.50;99.90;;;;;;4904630;29;20134;-96
2022/11/02 20:23:44;;;;;;;13.35;3.38;;;11.50;99.90;;;;;;4903154;29;20143;-96
2022/11/02 20:26:17;;;;;;;9.40;3.15;;;11.50;99.90;;;;;;4898707;29;20079;-96
2022/11/02 20:28:46;;;;;;;10.43;2.90;;;11.50;99.90;;;;;;4879976;29;20029;-96
2022/11/02 20:31:16;;;;;;;14.60;3.45;;;11.50;99.90;;;;;;4871982;29;20052;-95
2022/11/02 20:33:42;;;;;;;13.20;3.28;;;11.50;99.90;;;;;;4874698;29;20039;-94
2022/11/02 20:36:13;;;;;;;11.50;3.03;;;11.50;99.90;;;;;;4878604;29;20048;-96
2022/11/02 20:38:39;;;;;;;11.10;3.15;;;11.60;99.90;;;;;;4911392;29;20040;-96
2022/11/02 20:41:12;;;;;;;11.68;2.90;;;11.50;99.90;;;;;;4875520;29;20060;-96
2022/11/02 20:43:46;;;;;;;11.55;2.83;;;11.60;99.90;;;;;;4916401;29;20044;-96
2022/11/02 20:46:20;;;;;;;12.15;2.60;;;11.70;99.90;;;;;;4906942;29;20045;-95
2022/11/02 20:48:51;;;;;;;12.48;3.35;;;11.60;99.90;;;;;;4897136;29;20335;-95
2022/11/02 20:53:49;;;;;;;13.63;3.55;;;11.60;99.90;;;;;;4870434;29;20045;-94
2022/11/02 20:56:17;;;;;;;12.02;3.05;;;11.70;99.90;;;;;;4837993;29;20046;-95
2022/11/02 20:58:45;;;;;;;10.38;3.28;;;11.60;99.90;;;;;;4837474;29;20053;-96
2022/11/02 21:01:13;;;;;;;11.32;2.60;;;11.60;99.90;;;;;;4832935;29;20053;-95
2022/11/02 21:03:38;;;;;;;10.90;3.10;;;11.60;99.90;;;;;;4859776;29;20041;-96
2022/11/02 21:06:05;;;;;;;11.85;2.95;;;11.50;99.90;;;;;;4848569;29;20109;-96
2022/11/02 21:08:32;;;;;;;11.68;3.58;;;11.60;99.90;;;;;;4863238;29;20057;-96
2022/11/02 21:13:58;;;;;;;10.73;2.72;;;11.60;99.90;;;;;;4857785;29;20061;-96
2022/11/02 21:16:24;;;;;;;12.73;2.83;;;11.50;99.90;;;;;;4859123;29;20038;-96
2022/11/02 21:18:50;;;;;;;12.02;2.97;;;11.50;99.90;;;;;;4835336;29;20159;-93
2022/11/02 21:21:31;;;;;;;10.73;2.65;;;11.50;99.90;;;;;;4854783;29;20045;-96
2022/11/02 21:23:57;;;;;;;14.23;3.20;;;11.50;99.90;;;;;;4834982;29;20073;-95
2022/11/02 21:26:23;;;;;;;10.75;2.83;;;11.60;99.90;;;;;;4833020;29;20048;-96
2022/11/02 21:28:49;;;;;;;14.40;3.67;;;11.50;99.90;;;;;;4836069;29;20050;-95
2022/11/02 21:31:20;;;;;;;12.40;3.28;;;11.40;99.90;;;;;;4833186;29;20073;-96
2022/11/02 21:33:52;;;;;;;13.40;2.80;;;11.50;99.90;;;;;;4829161;29;20113;-96
2022/11/02 21:36:18;;;;;;;13.35;3.42;;;11.50;99.90;;;;;;4837717;29;20168;-96
2022/11/02 21:38:45;;;;;;;11.88;3.15;;;11.50;99.90;;;;;;4836925;29;20064;-96
2022/11/02 21:41:18;;;;;;;12.52;3.15;;;11.50;99.90;;;;;;4851251;29;20081;-96
2022/11/02 21:43:54;;;;;;;12.32;3.22;;;11.50;99.90;;;;;;4833321;29;20102;-96
2022/11/02 21:46:27;;;;;;;10.80;3.03;;;11.50;99.90;;;;;;4814554;29;20050;-96
2022/11/02 21:48:54;;;;;;;11.20;3.10;;;11.50;99.90;;;;;;4839021;29;20106;-96
2022/11/02 21:51:21;;;;;;;12.30;3.65;;;11.40;99.90;;;;;;4852562;29;20079;-95
2022/11/02 21:53:53;;;;;;;10.45;2.88;;;11.40;99.90;;;;;;4839769;29;20085;-96
2022/11/02 21:56:21;;;;;;;10.07;2.88;;;11.40;99.90;;;;;;4855784;29;20069;-95
2022/11/02 21:58:57;;;;;;;10.35;2.65;;;11.40;99.90;;;;;;4841631;29;20073;-96
2022/11/02 22:04:18;;;;;;;11.82;3.35;;;11.40;99.90;;;;;;4857274;29;20061;-96
2022/11/02 22:06:47;;;;;;;10.43;3.00;;;11.50;99.90;;;;;;4837945;29;20395;-96
2022/11/02 22:09:18;;;;;;;11.23;2.88;;;11.40;99.90;;;;;;4853331;29;20041;-96
